Time;durP1;ratioP1;P1;durP2;ratioP2;P2;SDS_P1;SDS_P2;PMS_P1;PMS_P2;Temp;Humidity;BMP_temperature;BMP_pressure;BME280_temperature;BME280_humidity;BME280_pressure;Samples;Min_cycle;Max_cycle;Signal;HPM_P1;HPM_P2
2021/08/28 00:01:39;;;;;;;16.73;3.95;;;18.30;99.90;;;;;;4981028;28;20552;-68
2021/08/28 00:04:05;;;;;;;16.70;4.32;;;18.30;99.90;;;;;;4963080;28;20200;-65
2021/08/28 00:06:31;;;;;;;16.88;4.53;;;18.30;99.90;;;;;;4981088;28;20189;-68
2021/08/28 00:08:56;;;;;;;19.77;4.20;;;18.30;99.90;;;;;;4980096;28;20190;-67
2021/08/28 00:11:22;;;;;;;18.23;5.13;;;18.30;99.90;;;;;;4982387;28;20199;-66
2021/08/28 00:13:48;;;;;;;15.15;4.10;;;18.30;99.90;;;;;;4960849;28;20244;-68
2021/08/28 00:16:13;;;;;;;21.60;4.20;;;18.30;99.90;;;;;;4979250;28;20190;-68
2021/08/28 00:18:39;;;;;;;19.17;4.20;;;18.30;99.90;;;;;;4982143;28;20181;-69
2021/08/28 00:21:06;;;;;;;17.88;3.80;;;18.30;99.90;;;;;;4981142;28;20185;-68
2021/08/28 00:23:32;;;;;;;20.20;4.38;;;18.30;99.90;;;;;;4979277;28;20186;-68
2021/08/28 00:25:58;;;;;;;20.70;4.05;;;18.40;99.90;;;;;;4982252;28;20189;-67
2021/08/28 00:28:23;;;;;;;19.73;4.22;;;18.30;99.90;;;;;;4980116;28;20193;-68
2021/08/28 00:30:49;;;;;;;16.90;4.32;;;18.30;99.90;;;;;;4979150;28;20194;-68
2021/08/28 00:33:16;;;;;;;22.55;4.55;;;18.40;99.90;;;;;;4982863;28;20632;-66
2021/08/28 00:35:43;;;;;;;32.72;4.82;;;18.30;99.90;;;;;;4983253;28;20677;-65
2021/08/28 00:38:09;;;;;;;16.65;4.35;;;18.30;99.90;;;;;;4981673;28;20196;-65
2021/08/28 00:40:37;;;;;;;14.52;4.38;;;18.30;99.90;;;;;;4965060;28;20178;-66
2021/08/28 00:43:03;;;;;;;20.98;3.83;;;18.40;99.90;;;;;;4975454;28;20592;-66
2021/08/28 00:45:30;;;;;;;17.50;4.28;;;18.40;99.90;;;;;;4980138;28;22430;-66
2021/08/28 00:47:57;;;;;;;15.05;4.00;;;18.30;99.90;;;;;;4981715;28;20189;-68
2021/08/28 00:50:27;;;;;;;12.77;3.85;;;18.40;99.90;;;;;;4962318;28;20189;-66
2021/08/28 00:52:54;;;;;;;22.52;4.65;;;18.40;99.90;;;;;;4981741;28;20535;-68
2021/08/28 00:55:27;;;;;;;13.13;3.78;;;18.40;99.90;;;;;;4979560;28;20232;-66
2021/08/28 00:57:58;;;;;;;17.33;4.25;;;18.40;99.90;;;;;;4950985;28;20189;-68
2021/08/28 01:00:23;;;;;;;15.48;4.05;;;18.40;99.90;;;;;;4982048;28;20534;-69
2021/08/28 01:02:51;;;;;;;19.92;4.03;;;18.40;99.90;;;;;;4946540;28;20581;-67
2021/08/28 01:05:21;;;;;;;16.30;4.10;;;18.40;99.90;;;;;;4963338;28;20247;-66
2021/08/28 01:08:04;;;;;;;13.73;4.03;;;18.40;99.90;;;;;;4967679;28;20581;-68
2021/08/28 01:11:07;;;;;;;16.15;3.50;;;18.40;99.90;;;;;;4984101;28;20197;-67
2021/08/28 01:13:41;;;;;;;18.60;4.47;;;18.30;99.90;;;;;;4964885;28;20228;-67
2021/08/28 01:16:10;;;;;;;16.17;3.70;;;18.40;99.90;;;;;;4968997;28;20192;-65
2021/08/28 01:18:39;;;;;;;12.20;3.75;;;18.40;99.90;;;;;;4969334;28;20177;-66
2021/08/28 01:21:24;;;;;;;15.00;4.20;;;18.40;99.90;;;;;;4986183;28;20193;-66
2021/08/28 01:24:09;;;;;;;15.57;4.13;;;18.30;99.90;;;;;;4983368;28;20251;-67
2021/08/28 01:26:59;;;;;;;11.95;3.60;;;18.40;99.90;;;;;;4982935;28;20268;-65
2021/08/28 01:29:32;;;;;;;21.77;4.00;;;18.30;99.90;;;;;;4968192;28;20641;-66
2021/08/28 01:31:59;;;;;;;14.45;4.20;;;18.30;99.90;;;;;;4969213;28;20201;-68
2021/08/28 01:34:26;;;;;;;13.55;3.80;;;18.30;99.90;;;;;;4984228;28;20212;-67
2021/08/28 01:36:54;;;;;;;19.00;3.92;;;18.30;99.90;;;;;;4987566;28;20196;-67
2021/08/28 01:39:44;;;;;;;10.02;3.33;;;18.30;99.90;;;;;;4984566;28;20692;-68
2021/08/28 01:42:15;;;;;;;18.40;4.50;;;18.20;99.90;;;;;;4962328;28;20179;-66
2021/08/28 01:44:47;;;;;;;23.70;4.68;;;18.20;99.90;;;;;;4968097;28;20193;-66
2021/08/28 01:47:15;;;;;;;16.48;4.18;;;18.10;99.90;;;;;;4968332;28;20284;-68
2021/08/28 01:49:44;;;;;;;12.85;3.90;;;18.10;99.90;;;;;;4969835;28;20193;-65
2021/08/28 01:52:11;;;;;;;21.20;4.65;;;18.10;99.90;;;;;;4963515;28;20252;-68
2021/08/28 01:54:41;;;;;;;19.63;4.10;;;18.10;99.90;;;;;;4963320;28;20215;-68
2021/08/28 01:57:11;;;;;;;17.25;3.85;;;18.00;99.90;;;;;;4984131;28;20316;-69
2021/08/28 01:59:43;;;;;;;14.50;4.10;;;18.00;99.90;;;;;;4967476;28;20190;-68
2021/08/28 02:02:24;;;;;;;13.63;4.40;;;18.00;99.90;;;;;;4972002;28;20320;-67
2021/08/28 02:04:55;;;;;;;20.25;4.30;;;18.00;99.90;;;;;;4962438;28;20352;-69
2021/08/28 02:07:28;;;;;;;10.13;3.75;;;18.00;99.90;;;;;;4965635;28;21340;-66
2021/08/28 02:10:15;;;;;;;11.90;3.92;;;18.00;99.90;;;;;;4963245;28;20217;-68
2021/08/28 02:12:44;;;;;;;9.27;3.75;;;17.90;99.90;;;;;;4965858;28;20185;-68
2021/08/28 02:15:21;;;;;;;9.10;3.33;;;18.00;99.90;;;;;;4985963;28;20599;-68
2021/08/28 02:18:04;;;;;;;8.23;2.90;;;18.00;99.90;;;;;;4967006;28;20181;-67
2021/08/28 02:20:41;;;;;;;15.82;3.65;;;18.00;99.90;;;;;;4963903;28;20192;-67
2021/08/28 02:23:18;;;;;;;10.32;3.40;;;18.00;99.90;;;;;;4967160;28;20181;-67
2021/08/28 02:26:12;;;;;;;5.75;2.92;;;18.00;99.90;;;;;;4983596;28;20220;-68
2021/08/28 02:28:45;;;;;;;11.60;3.38;;;18.00;99.90;;;;;;4967512;28;20234;-69
2021/08/28 02:31:12;;;;;;;9.75;3.30;;;18.00;99.90;;;;;;4963964;28;20194;-69
2021/08/28 02:33:48;;;;;;;8.15;3.20;;;18.00;99.90;;;;;;4965075;28;20237;-66
2021/08/28 02:36:16;;;;;;;9.13;3.38;;;18.00;99.90;;;;;;4981693;28;20228;-67
2021/08/28 02:38:44;;;;;;;10.02;2.97;;;18.00;99.90;;;;;;4964972;28;20653;-68
2021/08/28 02:41:11;;;;;;;13.85;3.92;;;18.00;99.90;;;;;;4963366;28;20677;-68
2021/08/28 02:43:39;;;;;;;10.13;3.40;;;18.00;99.90;;;;;;4967836;28;20193;-67
2021/08/28 02:46:06;;;;;;;13.57;3.60;;;18.00;99.90;;;;;;4964364;28;20181;-68
2021/08/28 02:48:37;;;;;;;9.10;3.40;;;18.00;99.90;;;;;;4967916;28;20264;-68
2021/08/28 02:51:10;;;;;;;9.25;3.65;;;18.00;99.90;;;;;;4965257;28;20186;-66
2021/08/28 02:53:40;;;;;;;19.77;4.22;;;18.00;99.90;;;;;;4958872;28;20182;-69
2021/08/28 02:56:07;;;;;;;12.95;4.25;;;18.00;99.90;;;;;;4967150;28;20611;-66
2021/08/28 02:58:34;;;;;;;10.40;3.72;;;18.00;99.90;;;;;;4962792;28;20754;-68
2021/08/28 03:01:01;;;;;;;10.70;3.88;;;18.00;99.90;;;;;;4965762;28;20189;-68
2021/08/28 03:03:27;;;;;;;14.65;3.75;;;18.00;99.90;;;;;;4966261;28;20686;-66
2021/08/28 03:05:54;;;;;;;13.43;3.80;;;18.00;99.90;;;;;;4978843;28;20561;-67
2021/08/28 03:08:22;;;;;;;10.43;3.78;;;18.00;99.90;;;;;;4965730;28;20284;-66
2021/08/28 03:10:50;;;;;;;13.40;3.75;;;18.00;99.90;;;;;;4984315;28;20209;-65
2021/08/28 03:13:19;;;;;;;16.23;3.97;;;18.00;99.90;;;;;;4965973;28;20229;-67
2021/08/28 03:15:48;;;;;;;13.05;3.90;;;18.00;99.90;;;;;;4966199;28;20276;-67
2021/08/28 03:18:19;;;;;;;17.38;4.63;;;18.00;99.90;;;;;;4962774;28;20281;-67
2021/08/28 03:20:48;;;;;;;13.35;4.32;;;18.00;99.90;;;;;;4964771;28;20665;-66
2021/08/28 03:23:18;;;;;;;17.55;4.20;;;18.00;99.90;;;;;;4962441;28;20193;-68
2021/08/28 03:25:45;;;;;;;13.52;4.10;;;17.90;99.90;;;;;;4978965;28;20233;-67
2021/08/28 03:28:14;;;;;;;13.82;4.03;;;17.90;99.90;;;;;;4964443;28;20669;-66
2021/08/28 03:30:45;;;;;;;19.45;4.70;;;17.90;99.90;;;;;;4963416;28;20174;-64
2021/08/28 03:33:15;;;;;;;14.38;4.60;;;17.90;99.90;;;;;;4964388;28;20773;-66
2021/08/28 03:35:44;;;;;;;23.35;4.60;;;17.90;99.90;;;;;;4969288;28;20221;-67
2021/08/28 03:38:10;;;;;;;11.25;4.05;;;17.80;99.90;;;;;;4963458;28;20197;-69
2021/08/28 03:40:37;;;;;;;25.13;4.38;;;17.80;99.90;;;;;;4963594;28;20188;-67
2021/08/28 03:43:04;;;;;;;16.10;4.15;;;17.80;99.90;;;;;;4963747;28;20600;-64
2021/08/28 03:45:31;;;;;;;13.85;4.65;;;17.70;99.90;;;;;;4965642;28;20201;-66
2021/08/28 03:47:57;;;;;;;18.55;4.30;;;17.70;99.90;;;;;;4958815;28;20585;-65
2021/08/28 03:50:23;;;;;;;18.23;4.00;;;17.70;99.90;;;;;;4965911;28;20243;-67
2021/08/28 03:52:55;;;;;;;16.17;4.40;;;17.60;99.90;;;;;;4964225;28;20188;-67
2021/08/28 03:55:21;;;;;;;10.52;4.05;;;17.60;99.90;;;;;;4963287;28;21063;-66
2021/08/28 03:57:47;;;;;;;14.18;4.25;;;17.60;99.90;;;;;;4982630;28;20181;-65
2021/08/28 04:00:13;;;;;;;19.52;4.47;;;17.60;99.90;;;;;;4964104;28;20276;-66
2021/08/28 04:02:41;;;;;;;13.43;4.90;;;17.60;99.90;;;;;;4979261;28;20195;-64
2021/08/28 04:05:10;;;;;;;17.55;4.45;;;17.50;99.90;;;;;;4979488;28;20214;-64
2021/08/28 04:07:40;;;;;;;13.25;4.68;;;17.50;99.90;;;;;;4961664;28;20192;-66
2021/08/28 04:10:07;;;;;;;16.00;4.50;;;17.50;99.90;;;;;;4967495;28;20192;-66
2021/08/28 04:12:35;;;;;;;12.95;4.07;;;17.40;99.90;;;;;;4982002;28;20212;-65
2021/08/28 04:15:04;;;;;;;16.42;4.07;;;17.40;99.90;;;;;;4978778;28;20665;-63
2021/08/28 04:17:42;;;;;;;14.57;4.45;;;17.40;99.90;;;;;;4964890;28;20225;-67
2021/08/28 04:20:08;;;;;;;15.40;4.30;;;17.40;99.90;;;;;;4962182;28;20218;-68
2021/08/28 04:22:33;;;;;;;14.40;4.10;;;17.40;99.90;;;;;;4982232;28;20196;-67
2021/08/28 04:25:19;;;;;;;16.65;4.28;;;17.30;99.90;;;;;;4950971;28;20204;-66
2021/08/28 04:28:03;;;;;;;12.68;3.63;;;17.30;99.90;;;;;;4962391;28;20661;-67
2021/08/28 04:30:32;;;;;;;13.75;4.40;;;17.30;99.90;;;;;;4961962;28;20190;-66
2021/08/28 04:32:59;;;;;;;9.93;3.97;;;17.30;99.90;;;;;;4964995;28;20210;-66
2021/08/28 04:35:24;;;;;;;10.88;4.10;;;17.30;99.90;;;;;;4962998;28;20205;-67
2021/08/28 04:37:50;;;;;;;10.10;3.83;;;17.30;99.90;;;;;;4962163;28;20222;-68
2021/08/28 04:40:17;;;;;;;12.52;3.92;;;17.30;99.90;;;;;;4965678;28;20549;-65
2021/08/28 04:42:43;;;;;;;17.90;4.00;;;17.30;99.90;;;;;;4964313;28;20196;-68
2021/08/28 04:45:10;;;;;;;14.82;3.60;;;17.30;99.90;;;;;;4984725;28;20201;-69
2021/08/28 04:47:55;;;;;;;13.20;3.90;;;17.30;99.90;;;;;;4982689;28;20649;-66
2021/08/28 04:50:22;;;;;;;11.93;4.07;;;17.20;99.90;;;;;;4968002;28;20197;-66
2021/08/28 04:52:48;;;;;;;10.75;4.30;;;17.20;99.90;;;;;;4968453;28;20193;-66
2021/08/28 04:55:14;;;;;;;17.30;4.43;;;17.20;99.90;;;;;;4964112;28;20203;-67
2021/08/28 04:57:39;;;;;;;11.73;3.78;;;17.20;99.90;;;;;;4967110;28;20665;-67
2021/08/28 05:00:05;;;;;;;13.10;4.47;;;17.20;99.90;;;;;;4968268;28;20696;-68
2021/08/28 05:02:50;;;;;;;12.18;4.22;;;17.20;99.90;;;;;;4981069;28;20187;-68
2021/08/28 05:05:15;;;;;;;15.82;4.65;;;17.20;99.90;;;;;;4961321;28;20268;-67
2021/08/28 05:07:41;;;;;;;13.60;4.55;;;17.20;99.90;;;;;;4965003;28;20185;-66
2021/08/28 05:10:08;;;;;;;11.57;4.32;;;17.30;99.90;;;;;;4968090;28;20729;-69
2021/08/28 05:12:35;;;;;;;13.82;3.78;;;17.30;99.90;;;;;;4966314;28;20189;-66
2021/08/28 05:15:08;;;;;;;17.15;4.28;;;17.30;99.90;;;;;;4965313;28;20630;-68
2021/08/28 05:17:41;;;;;;;12.55;4.35;;;17.30;99.90;;;;;;4986562;28;20188;-68
2021/08/28 05:20:08;;;;;;;16.05;4.10;;;17.40;99.90;;;;;;4963931;28;20186;-69
2021/08/28 05:22:47;;;;;;;15.35;4.30;;;17.40;99.90;;;;;;4967804;28;20217;-65
2021/08/28 05:25:31;;;;;;;16.50;4.75;;;17.40;99.90;;;;;;4982368;28;20069;-66
2021/08/28 05:27:58;;;;;;;16.23;4.30;;;17.40;99.90;;;;;;4967527;28;20645;-68
2021/08/28 05:30:24;;;;;;;17.75;4.93;;;17.50;99.90;;;;;;4965150;28;20181;-66
2021/08/28 05:32:50;;;;;;;17.90;4.00;;;17.50;99.90;;;;;;4967465;28;20212;-65
2021/08/28 05:35:15;;;;;;;;;;;17.50;99.90;;;;;;4973463;28;20078;-67
2021/08/28 05:38:01;;;;;;;;;;;17.60;99.90;;;;;;4978642;28;19946;-69
2021/08/28 05:40:30;;;;;;;;;;;17.60;99.90;;;;;;4969598;28;19957;-66
2021/08/28 05:42:56;;;;;;;;;;;17.60;99.90;;;;;;4969568;28;19950;-68
2021/08/28 05:45:23;;;;;;;;;;;17.70;99.90;;;;;;4966281;28;19955;-65
2021/08/28 05:47:48;;;;;;;;;;;17.70;99.90;;;;;;4950779;28;20362;-65
2021/08/28 05:50:18;;;;;;;;;;;17.70;99.90;;;;;;4969907;28;19953;-67
2021/08/28 05:52:44;;;;;;;;;;;17.80;99.90;;;;;;4964431;28;19946;-64
2021/08/28 05:55:12;;;;;;;;;;;17.80;99.90;;;;;;4965416;28;20641;-68
2021/08/28 05:57:39;;;;;;;;;;;17.80;99.90;;;;;;4967254;28;19946;-67
2021/08/28 06:00:05;;;;;;;;;;;17.90;99.90;;;;;;4964559;28;19993;-64
2021/08/28 06:02:40;;;;;;;;;;;17.90;99.90;;;;;;4983469;28;19954;-69
2021/08/28 06:05:11;;;;;;;;;;;17.90;99.90;;;;;;4970148;28;20037;-68
2021/08/28 06:07:57;;;;;;;18.83;4.97;;;18.00;99.90;;;;;;4967776;28;20095;-67
2021/08/28 06:10:41;;;;;;;19.90;4.38;;;18.00;99.90;;;;;;4980585;28;20205;-69
2021/08/28 06:13:32;;;;;;;15.90;4.25;;;18.10;99.90;;;;;;4979912;28;20264;-70
2021/08/28 06:16:11;;;;;;;15.23;5.13;;;18.10;99.90;;;;;;4965484;28;20272;-66
2021/08/28 06:18:37;;;;;;;15.57;4.97;;;18.10;99.90;;;;;;4964402;28;20181;-67
2021/08/28 06:21:03;;;;;;;13.10;4.10;;;18.20;99.90;;;;;;4963741;28;20224;-69
2021/08/28 06:23:29;;;;;;;;;;;18.20;99.90;;;;;;4964000;28;20486;-67
2021/08/28 06:26:17;;;;;;;15.45;4.10;;;18.20;99.90;;;;;;4980125;28;20279;-67
2021/08/28 06:28:42;;;;;;;19.25;4.72;;;18.20;99.90;;;;;;4958558;28;20671;-64
2021/08/28 06:31:09;;;;;;;12.85;4.20;;;18.30;99.90;;;;;;4947411;28;20212;-68
2021/08/28 06:33:35;;;;;;;13.52;4.10;;;18.30;99.90;;;;;;4963429;28;20709;-67
2021/08/28 06:36:00;;;;;;;14.48;4.22;;;18.30;99.90;;;;;;4968433;28;20536;-65
2021/08/28 06:38:46;;;;;;;12.40;4.10;;;18.40;99.90;;;;;;4980866;28;20643;-61
2021/08/28 06:41:37;;;;;;;17.95;4.47;;;18.40;99.90;;;;;;4958818;28;20205;-64
2021/08/28 06:44:23;;;;;;;17.65;4.45;;;18.50;99.90;;;;;;4982815;28;20764;-67
2021/08/28 06:47:09;;;;;;;15.05;3.97;;;18.50;99.90;;;;;;4981231;28;20243;-64
2021/08/28 06:49:53;;;;;;;;;;;18.50;99.90;;;;;;4976919;28;20267;-67
2021/08/28 06:52:38;;;;;;;20.10;4.63;;;18.50;99.90;;;;;;4981871;28;20254;-69
2021/08/28 06:55:22;;;;;;;12.65;4.43;;;18.50;99.90;;;;;;4979283;28;20764;-68
2021/08/28 06:58:06;;;;;;;13.02;4.50;;;18.60;99.90;;;;;;4978697;28;20199;-68
2021/08/28 07:00:55;;;;;;;13.60;4.35;;;18.60;99.90;;;;;;4965011;28;20208;-67
2021/08/28 07:03:39;;;;;;;;;;;18.60;99.90;;;;;;4980972;28;20064;-70
2021/08/28 07:06:11;;;;;;;;;;;18.70;99.90;;;;;;4970656;28;20570;-65
2021/08/28 07:08:37;;;;;;;15.55;4.57;;;18.80;99.90;;;;;;4964247;28;20188;-69
2021/08/28 07:11:04;;;;;;;12.60;3.83;;;18.80;99.90;;;;;;4967837;28;20196;-69
2021/08/28 07:13:29;;;;;;;11.45;3.75;;;18.90;99.90;;;;;;4966274;28;20224;-66
2021/08/28 07:15:56;;;;;;;12.02;3.80;;;19.00;99.90;;;;;;4963812;28;20297;-67
2021/08/28 07:18:22;;;;;;;13.70;4.00;;;19.10;99.90;;;;;;4964162;28;20320;-64
2021/08/28 07:20:47;;;;;;;15.82;4.03;;;19.10;99.90;;;;;;4980420;28;20216;-66
2021/08/28 07:23:16;;;;;;;14.13;4.05;;;19.20;99.90;;;;;;4981063;28;20187;-68
2021/08/28 07:25:52;;;;;;;14.70;4.00;;;19.20;99.90;;;;;;4966428;28;20272;-64
2021/08/28 07:28:22;;;;;;;10.63;3.45;;;19.20;99.90;;;;;;4946221;28;20247;-67
2021/08/28 07:31:16;;;;;;;12.82;3.85;;;19.30;99.90;;;;;;4978842;28;20205;-67
2021/08/28 07:33:50;;;;;;;18.73;4.10;;;19.30;99.90;;;;;;4979764;28;20209;-70
2021/08/28 07:36:15;;;;;;;15.23;3.97;;;19.30;99.90;;;;;;4980813;28;20263;-72
2021/08/28 07:38:44;;;;;;;15.90;4.28;;;19.30;99.90;;;;;;4962581;28;20567;-66
2021/08/28 07:41:10;;;;;;;9.68;3.47;;;19.30;99.90;;;;;;4961812;28;20173;-71
2021/08/28 07:43:35;;;;;;;13.65;4.40;;;19.30;99.90;;;;;;4961119;28;20642;-67
2021/08/28 07:46:03;;;;;;;9.05;3.97;;;19.30;99.90;;;;;;4963399;28;20301;-70
2021/08/28 07:48:32;;;;;;;13.90;4.22;;;19.30;99.90;;;;;;4965686;28;20192;-71
2021/08/28 07:50:58;;;;;;;11.20;3.60;;;19.30;99.90;;;;;;4961391;28;20582;-68
2021/08/28 07:53:24;;;;;;;10.93;3.88;;;19.30;99.90;;;;;;4965439;28;20185;-69
2021/08/28 07:55:56;;;;;;;12.25;3.88;;;19.30;99.90;;;;;;4964431;28;20221;-68
2021/08/28 07:58:23;;;;;;;9.88;3.92;;;19.40;99.90;;;;;;4963219;28;20190;-68
2021/08/28 08:00:49;;;;;;;15.50;4.25;;;19.40;99.90;;;;;;4982125;28;20181;-67
2021/08/28 08:03:15;;;;;;;11.48;3.85;;;19.50;99.90;;;;;;4977703;28;20181;-69
2021/08/28 08:05:59;;;;;;;17.05;4.40;;;19.60;99.90;;;;;;4967913;28;20286;-72
2021/08/28 08:08:51;;;;;;;;;;;19.60;99.90;;;;;;4951961;28;20744;-71
2021/08/28 08:11:35;;;;;;;13.45;4.32;;;19.70;99.90;;;;;;4977457;28;20387;-70
2021/08/28 08:14:16;;;;;;;11.07;3.97;;;19.80;99.60;;;;;;4979935;28;20240;-71
2021/08/28 08:17:01;;;;;;;11.77;4.15;;;19.90;99.30;;;;;;4984889;28;20200;-75
2021/08/28 08:19:46;;;;;;;18.35;4.00;;;20.00;99.10;;;;;;4984313;28;20195;-73
2021/08/28 08:22:30;;;;;;;;;;;20.10;98.90;;;;;;4982875;28;20172;-73
2021/08/28 08:25:16;;;;;;;;;;;20.20;98.70;;;;;;4957134;28;20397;-72
2021/08/28 08:28:01;;;;;;;;;;;20.40;98.40;;;;;;4982483;28;20002;-70
2021/08/28 08:30:47;;;;;;;13.45;4.53;;;20.50;98.10;;;;;;4984535;28;20611;-74
2021/08/28 08:33:17;;;;;;;11.32;3.38;;;20.60;97.90;;;;;;4966652;28;20192;-71
2021/08/28 08:35:43;;;;;;;9.85;3.60;;;20.60;97.30;;;;;;4985757;28;20205;-72
2021/08/28 08:38:09;;;;;;;12.65;3.70;;;20.60;97.00;;;;;;4968262;28;20193;-75
2021/08/28 08:40:34;;;;;;;10.43;3.80;;;20.70;96.70;;;;;;4969184;28;20193;-71
2021/08/28 08:43:02;;;;;;;8.35;3.88;;;20.80;96.70;;;;;;4966670;28;20182;-72
2021/08/28 08:45:28;;;;;;;;;;;20.90;96.50;;;;;;4983686;28;20119;-70
2021/08/28 08:47:55;;;;;;;9.73;3.50;;;21.20;96.30;;;;;;4985341;28;20182;-72
2021/08/28 08:50:22;;;;;;;;;;;21.60;95.60;;;;;;4968327;28;20084;-70
2021/08/28 08:52:52;;;;;;;;;;;21.90;94.80;;;;;;4971278;28;19924;-72
2021/08/28 08:55:51;;;;;;;7.93;3.67;;;22.20;94.10;;;;;;4938224;28;20214;-66
2021/08/28 08:58:17;;;;;;;8.32;3.58;;;22.50;93.70;;;;;;4968164;28;20190;-71
2021/08/28 09:00:53;;;;;;;9.70;3.75;;;22.80;92.90;;;;;;4964758;28;20607;-69
2021/08/28 09:03:25;;;;;;;10.80;3.60;;;23.00;91.90;;;;;;4964704;28;20197;-71
2021/08/28 09:05:56;;;;;;;11.43;4.22;;;23.10;91.00;;;;;;4952270;28;20261;-71
2021/08/28 09:08:25;;;;;;;8.93;3.47;;;23.00;90.50;;;;;;4967676;28;20183;-69
2021/08/28 09:10:51;;;;;;;9.32;3.30;;;23.00;90.30;;;;;;4983870;28;20272;-70
2021/08/28 09:13:22;;;;;;;7.90;3.10;;;23.10;90.00;;;;;;4985221;28;20225;-70
2021/08/28 09:15:50;;;;;;;12.50;3.90;;;23.30;89.00;;;;;;4966509;28;20216;-69
2021/08/28 09:18:16;;;;;;;6.95;3.83;;;23.30;88.00;;;;;;4980463;28;20246;-65
2021/08/28 09:20:43;;;;;;;9.18;3.58;;;23.30;87.50;;;;;;4986432;28;20185;-70
2021/08/28 09:23:11;;;;;;;6.90;3.05;;;23.40;86.90;;;;;;4967815;28;20191;-66
2021/08/28 09:25:40;;;;;;;8.30;3.33;;;23.40;86.10;;;;;;4981841;28;20329;-65
2021/08/28 09:28:07;;;;;;;10.30;3.30;;;23.40;85.30;;;;;;4983648;28;20173;-67
2021/08/28 09:30:46;;;;;;;10.20;3.40;;;23.30;84.90;;;;;;4979544;28;20192;-65
2021/08/28 09:33:14;;;;;;;9.52;3.33;;;23.20;84.90;;;;;;4985485;28;20681;-68
2021/08/28 09:35:47;;;;;;;8.32;3.58;;;23.40;85.70;;;;;;4983328;28;20304;-68
2021/08/28 09:38:16;;;;;;;8.88;3.63;;;23.60;84.30;;;;;;4983630;28;20643;-68
2021/08/28 09:40:45;;;;;;;12.65;3.42;;;23.60;83.30;;;;;;4982531;28;20212;-65
2021/08/28 09:43:16;;;;;;;10.43;3.63;;;23.50;82.50;;;;;;4979202;28;20185;-66
2021/08/28 09:45:42;;;;;;;10.13;3.63;;;23.40;82.40;;;;;;4982944;28;20193;-65
2021/08/28 09:48:10;;;;;;;7.80;3.10;;;23.20;82.80;;;;;;4984723;28;20200;-66
2021/08/28 09:50:40;;;;;;;;;;;23.60;84.10;;;;;;4982212;28;19950;-71
2021/08/28 09:53:11;;;;;;;7.30;2.97;;;24.40;83.00;;;;;;4983569;28;20440;-70
2021/08/28 09:55:39;;;;;;;7.35;2.95;;;25.30;81.30;;;;;;4987056;28;20217;-66
2021/08/28 09:58:06;;;;;;;6.20;2.72;;;26.40;77.60;;;;;;4981993;28;20196;-66
2021/08/28 10:00:33;;;;;;;10.18;3.13;;;26.90;73.80;;;;;;4982754;28;20173;-66
2021/08/28 10:03:03;;;;;;;6.78;2.90;;;26.90;71.50;;;;;;4982703;28;20185;-63
2021/08/28 10:05:36;;;;;;;6.07;2.78;;;26.80;70.60;;;;;;4985188;28;20651;-67
2021/08/28 10:08:05;;;;;;;7.50;3.17;;;26.60;69.70;;;;;;4985367;28;20197;-71
2021/08/28 10:10:33;;;;;;;;;;;26.40;69.30;;;;;;4978622;28;20040;-64
2021/08/28 10:13:00;;;;;;;8.63;3.00;;;26.10;69.40;;;;;;4983696;28;20267;-68
2021/08/28 10:15:28;;;;;;;5.50;2.70;;;25.90;70.10;;;;;;4981287;28;20752;-67
2021/08/28 10:17:56;;;;;;;5.65;2.55;;;26.40;70.30;;;;;;4981737;28;20266;-68
2021/08/28 10:20:23;;;;;;;6.50;2.25;;;27.10;68.20;;;;;;4983822;28;20192;-66
2021/08/28 10:22:52;;;;;;;5.95;2.30;;;27.80;66.50;;;;;;4984133;28;20542;-65
2021/08/28 10:25:20;;;;;;;5.95;2.58;;;28.70;64.30;;;;;;4978872;28;20197;-67
2021/08/28 10:27:47;;;;;;;12.02;2.90;;;29.70;59.90;;;;;;4981189;28;20193;-68
2021/08/28 10:30:15;;;;;;;8.05;2.40;;;30.00;57.10;;;;;;4980656;28;20034;-70
2021/08/28 10:32:42;;;;;;;7.13;2.70;;;29.70;56.40;;;;;;4982551;28;20708;-65
2021/08/28 10:35:09;;;;;;;7.57;2.90;;;29.30;56.10;;;;;;4965886;28;20216;-67
2021/08/28 10:37:35;;;;;;;7.65;2.85;;;28.80;56.40;;;;;;4973832;28;20189;-65
2021/08/28 10:40:02;;;;;;;6.65;2.70;;;28.50;56.90;;;;;;4983287;28;20208;-69
2021/08/28 10:42:31;;;;;;;7.90;2.85;;;28.40;57.50;;;;;;4968596;28;20296;-68
2021/08/28 10:45:00;;;;;;;6.07;2.50;;;28.80;57.10;;;;;;4976191;28;20874;-70
2021/08/28 10:47:31;;;;;;;5.43;2.58;;;29.20;56.40;;;;;;4960878;28;20209;-68
2021/08/28 10:50:09;;;;;;;9.40;2.78;;;29.50;55.30;;;;;;4981955;28;20235;-66
2021/08/28 10:52:37;;;;;;;6.70;2.27;;;29.50;54.60;;;;;;4983505;28;20199;-68
2021/08/28 10:55:21;;;;;;;6.97;2.60;;;29.30;54.50;;;;;;4984848;28;20884;-65
2021/08/28 10:58:06;;;;;;;6.68;2.78;;;28.90;54.40;;;;;;4978810;28;20274;-67
2021/08/28 11:00:41;;;;;;;6.80;3.05;;;28.40;55.50;;;;;;4974138;28;20443;-64
2021/08/28 11:03:21;;;;;;;6.90;2.40;;;27.90;56.30;;;;;;4982891;28;20271;-66
2021/08/28 11:06:06;;;;;;;;;;;27.40;57.20;;;;;;4980782;28;20062;-66
2021/08/28 11:08:44;;;;;;;;;;;27.10;57.80;;;;;;4982202;28;19951;-67
2021/08/28 11:11:16;;;;;;;;;;;26.80;58.90;;;;;;4982289;28;20425;-66
2021/08/28 11:13:57;;;;;;;;;;;26.80;59.10;;;;;;4981394;28;20443;-69
2021/08/28 11:16:41;;;;;;;8.18;2.70;;;26.70;59.00;;;;;;4980105;28;20201;-65
2021/08/28 11:19:07;;;;;;;7.35;2.50;;;26.50;59.60;;;;;;4979785;28;20201;-67
2021/08/28 11:21:42;;;;;;;6.22;2.60;;;26.50;59.60;;;;;;4983065;28;20217;-66
2021/08/28 11:24:18;;;;;;;5.32;2.40;;;26.80;59.70;;;;;;4964310;28;20327;-68
2021/08/28 11:26:48;;;;;;;4.22;2.67;;;27.70;58.90;;;;;;4977215;28;20185;-67
2021/08/28 11:29:21;;;;;;;;;;;28.70;57.30;;;;;;4983207;28;20295;-69
2021/08/28 11:32:13;;;;;;;6.05;2.80;;;29.50;55.60;;;;;;4982523;28;20419;-66
2021/08/28 11:34:57;;;;;;;5.60;2.80;;;29.50;53.60;;;;;;4976133;28;20209;-66
2021/08/28 11:37:28;;;;;;;6.38;2.72;;;29.30;53.60;;;;;;4980217;28;20196;-68
2021/08/28 11:40:02;;;;;;;4.03;2.83;;;29.00;53.50;;;;;;4967076;28;20549;-65
2021/08/28 11:42:29;;;;;;;6.07;3.03;;;28.70;53.70;;;;;;4975604;28;20314;-66
2021/08/28 11:44:57;;;;;;;7.70;2.95;;;28.40;54.40;;;;;;4980157;28;20172;-67
2021/08/28 11:47:23;;;;;;;7.88;2.88;;;28.10;55.10;;;;;;4966730;28;20192;-66
2021/08/28 11:49:52;;;;;;;;;;;28.10;55.60;;;;;;4981426;28;20098;-68
2021/08/28 11:52:18;;;;;;;8.45;3.10;;;28.30;55.60;;;;;;4964576;28;20202;-65
2021/08/28 11:54:45;;;;;;;7.97;3.08;;;28.70;55.50;;;;;;4981704;28;20234;-69
2021/08/28 11:57:11;;;;;;;6.70;2.90;;;29.20;54.80;;;;;;4979675;28;20592;-67
2021/08/28 11:59:39;;;;;;;5.70;2.63;;;29.60;54.00;;;;;;4981731;28;20184;-67
2021/08/28 12:02:05;;;;;;;8.80;2.92;;;30.00;53.30;;;;;;4982674;28;20220;-69
2021/08/28 12:04:37;;;;;;;9.13;2.97;;;30.40;52.50;;;;;;4976794;28;20276;-67
2021/08/28 12:07:05;;;;;;;8.00;2.97;;;30.50;51.80;;;;;;4980202;28;20197;-69
2021/08/28 12:09:31;;;;;;;6.50;2.60;;;30.70;51.40;;;;;;4980667;28;20279;-67
2021/08/28 12:11:58;;;;;;;4.00;2.20;;;31.20;50.50;;;;;;4981629;28;20729;-71
2021/08/28 12:14:32;;;;;;;6.80;2.65;;;31.60;49.70;;;;;;4979675;28;20398;-71
2021/08/28 12:16:59;;;;;;;4.60;2.50;;;32.10;48.40;;;;;;4980855;28;20185;-67
2021/08/28 12:19:30;;;;;;;5.90;2.60;;;32.60;47.20;;;;;;4982249;28;20193;-69
2021/08/28 12:22:13;;;;;;;4.25;2.33;;;32.90;45.80;;;;;;4983311;28;20193;-68
2021/08/28 12:24:40;;;;;;;7.70;2.40;;;33.10;44.00;;;;;;4979565;28;20231;-65
2021/08/28 12:27:11;;;;;;;4.47;1.88;;;33.30;44.00;;;;;;4980842;28;20224;-68
2021/08/28 12:29:37;;;;;;;5.68;2.47;;;33.40;43.60;;;;;;4975186;28;20220;-68
2021/08/28 12:32:09;;;;;;;5.10;2.10;;;33.40;42.50;;;;;;4962827;28;20204;-67
2021/08/28 12:34:37;;;;;;;4.13;2.25;;;33.50;42.50;;;;;;4978368;28;20227;-68
2021/08/28 12:37:05;;;;;;;6.72;2.45;;;33.70;42.10;;;;;;4980940;28;20655;-68
2021/08/28 12:39:32;;;;;;;5.93;2.10;;;33.70;41.70;;;;;;4982225;28;20195;-69
2021/08/28 12:41:58;;;;;;;7.78;2.72;;;33.80;41.40;;;;;;4979777;28;20611;-65
2021/08/28 12:44:25;;;;;;;7.30;2.60;;;33.90;41.00;;;;;;4980258;28;20194;-71
2021/08/28 12:46:53;;;;;;;7.30;2.40;;;34.00;40.90;;;;;;4982121;28;20300;-67
2021/08/28 12:49:21;;;;;;;6.30;2.95;;;34.00;41.40;;;;;;4978692;28;20189;-66
2021/08/28 12:51:53;;;;;;;8.02;2.33;;;33.70;40.40;;;;;;4980652;28;20176;-65
2021/08/28 12:54:23;;;;;;;;;;;33.30;40.50;;;;;;4981967;28;20097;-65
2021/08/28 12:57:01;;;;;;;8.20;2.88;;;32.90;40.50;;;;;;4978673;28;20544;-67
2021/08/28 12:59:26;;;;;;;5.43;2.55;;;32.40;40.80;;;;;;4980489;28;20185;-67
2021/08/28 13:01:57;;;;;;;7.65;2.88;;;31.90;41.70;;;;;;4980779;28;20189;-67
2021/08/28 13:04:34;;;;;;;6.68;2.45;;;31.50;42.30;;;;;;4982641;28;20189;-66
2021/08/28 13:07:33;;;;;;;6.05;2.60;;;31.00;43.00;;;;;;4984224;28;20206;-67
2021/08/28 13:10:05;;;;;;;6.38;2.78;;;30.60;43.60;;;;;;4970717;28;20200;-68
2021/08/28 13:12:38;;;;;;;;;;;30.10;44.10;;;;;;4981925;28;20055;-66